sensor_id;sensor_type;location;lat;lon;timestamp;pressure;altitude;pressure_sealevel;temperature;humidity
24390;BME280;12510;56.468;-3.004;2022-10-13T00:00:58;100599.47;;;8.26;100.00
24390;BME280;12510;56.468;-3.004;2022-10-13T00:03:24;100604.97;;;8.23;100.00
24390;BME280;12510;56.468;-3.004;2022-10-13T00:05:51;100600.00;;;8.20;100.00
24390;BME280;12510;56.468;-3.004;2022-10-13T00:08:19;100597.72;;;8.15;100.00
24390;BME280;12510;56.468;-3.004;2022-10-13T00:10:48;100599.13;;;8.19;100.00
24390;BME280;12510;56.468;-3.004;2022-10-13T00:13:19;100603.69;;;8.17;100.00
24390;BME280;12510;56.468;-3.004;2022-10-13T00:15:47;100601.75;;;8.19;100.00
24390;BME280;12510;56.468;-3.004;2022-10-13T00:18:14;100601.28;;;8.14;100.00
24390;BME280;12510;56.468;-3.004;2022-10-13T00:20:43;100609.06;;;8.16;100.00
24390;BME280;12510;56.468;-3.004;2022-10-13T00:23:10;100608.22;;;8.15;100.00
24390;BME280;12510;56.468;-3.004;2022-10-13T00:25:47;100598.66;;;8.14;100.00
24390;BME280;12510;56.468;-3.004;2022-10-13T00:28:16;100605.97;;;8.11;100.00
24390;BME280;12510;56.468;-3.004;2022-10-13T00:30:43;100602.72;;;8.07;100.00
24390;BME280;12510;56.468;-3.004;2022-10-13T00:33:11;100603.56;;;8.08;100.00
24390;BME280;12510;56.468;-3.004;2022-10-13T00:35:42;100612.28;;;8.08;100.00
24390;BME280;12510;56.468;-3.004;2022-10-13T00:38:10;100612.41;;;8.07;100.00
24390;BME280;12510;56.468;-3.004;2022-10-13T00:43:25;100612.75;;;8.02;100.00
24390;BME280;12510;56.468;-3.004;2022-10-13T00:45:53;100618.25;;;7.99;100.00
24390;BME280;12510;56.468;-3.004;2022-10-13T00:48:23;100617.41;;;7.98;100.00
24390;BME280;12510;56.468;-3.004;2022-10-13T00:50:50;100615.75;;;7.97;100.00
24390;BME280;12510;56.468;-3.004;2022-10-13T00:53:21;100620.88;;;7.99;100.00
24390;BME280;12510;56.468;-3.004;2022-10-13T00:55:49;100616.44;;;7.99;100.00
24390;BME280;12510;56.468;-3.004;2022-10-13T00:58:18;100621.34;;;7.93;100.00
24390;BME280;12510;56.468;-3.004;2022-10-13T01:00:49;100619.91;;;7.88;100.00
24390;BME280;12510;56.468;-3.004;2022-10-13T01:03:18;100620.03;;;7.87;100.00
24390;BME280;12510;56.468;-3.004;2022-10-13T01:05:47;100623.25;;;7.91;100.00
24390;BME280;12510;56.468;-3.004;2022-10-13T01:08:16;100624.94;;;7.92;100.00
24390;BME280;12510;56.468;-3.004;2022-10-13T01:13:58;100627.91;;;7.98;100.00
24390;BME280;12510;56.468;-3.004;2022-10-13T01:30:45;100628.72;;;7.87;100.00
24390;BME280;12510;56.468;-3.004;2022-10-13T01:36:04;100617.66;;;7.84;100.00
24390;BME280;12510;56.468;-3.004;2022-10-13T01:39:06;100618.47;;;7.84;100.00
24390;BME280;12510;56.468;-3.004;2022-10-13T01:41:39;100611.69;;;7.82;100.00
24390;BME280;12510;56.468;-3.004;2022-10-13T01:44:26;100609.06;;;7.82;100.00
24390;BME280;12510;56.468;-3.004;2022-10-13T01:46:55;100616.59;;;7.86;100.00
24390;BME280;12510;56.468;-3.004;2022-10-13T01:49:27;100609.41;;;7.88;100.00
24390;BME280;12510;56.468;-3.004;2022-10-13T01:52:03;100611.22;;;7.88;100.00
24390;BME280;12510;56.468;-3.004;2022-10-13T01:54:32;100622.53;;;7.88;100.00
24390;BME280;12510;56.468;-3.004;2022-10-13T01:56:58;100614.91;;;7.85;100.00
24390;BME280;12510;56.468;-3.004;2022-10-13T01:59:26;100613.47;;;7.81;100.00
24390;BME280;12510;56.468;-3.004;2022-10-13T02:02:38;100620.75;;;7.89;100.00
24390;BME280;12510;56.468;-3.004;2022-10-13T02:07:43;100626.81;;;7.78;100.00
24390;BME280;12510;56.468;-3.004;2022-10-13T02:10:27;100622.41;;;7.79;100.00
24390;BME280;12510;56.468;-3.004;2022-10-13T02:13:05;100629.78;;;7.74;100.00
24390;BME280;12510;56.468;-3.004;2022-10-13T02:15:53;100623.59;;;7.75;100.00
24390;BME280;12510;56.468;-3.004;2022-10-13T02:18:30;100626.44;;;7.71;100.00
24390;BME280;12510;56.468;-3.004;2022-10-13T02:20:57;100625.50;;;7.61;100.00
24390;BME280;12510;56.468;-3.004;2022-10-13T02:23:25;100630.38;;;7.66;100.00
24390;BME280;12510;56.468;-3.004;2022-10-13T02:25:52;100624.19;;;7.67;100.00
24390;BME280;12510;56.468;-3.004;2022-10-13T02:28:21;100619.06;;;7.65;100.00
24390;BME280;12510;56.468;-3.004;2022-10-13T02:30:47;100620.13;;;7.63;100.00
24390;BME280;12510;56.468;-3.004;2022-10-13T02:33:14;100618.69;;;7.59;100.00
24390;BME280;12510;56.468;-3.004;2022-10-13T02:35:42;100621.44;;;7.57;100.00
24390;BME280;12510;56.468;-3.004;2022-10-13T02:38:08;100614.03;;;7.51;100.00
24390;BME280;12510;56.468;-3.004;2022-10-13T02:40:36;100618.56;;;7.49;100.00
24390;BME280;12510;56.468;-3.004;2022-10-13T02:43:03;100624.66;;;7.49;100.00
24390;BME280;12510;56.468;-3.004;2022-10-13T02:45:29;100612.59;;;7.47;100.00
24390;BME280;12510;56.468;-3.004;2022-10-13T02:47:55;100614.84;;;7.40;100.00
24390;BME280;12510;56.468;-3.004;2022-10-13T02:50:23;100615.97;;;7.49;100.00
24390;BME280;12510;56.468;-3.004;2022-10-13T02:52:49;100616.03;;;7.47;100.00
24390;BME280;12510;56.468;-3.004;2022-10-13T02:55:16;100615.22;;;7.47;100.00
24390;BME280;12510;56.468;-3.004;2022-10-13T02:57:45;100618.78;;;7.46;100.00
24390;BME280;12510;56.468;-3.004;2022-10-13T03:00:12;100612.84;;;7.44;100.00
24390;BME280;12510;56.468;-3.004;2022-10-13T03:02:38;100606.88;;;7.42;100.00
24390;BME280;12510;56.468;-3.004;2022-10-13T03:05:05;100606.75;;;7.43;100.00
24390;BME280;12510;56.468;-3.004;2022-10-13T03:07:31;100598.31;;;7.40;100.00
24390;BME280;12510;56.468;-3.004;2022-10-13T03:09:58;100595.91;;;7.36;100.00
24390;BME280;12510;56.468;-3.004;2022-10-13T03:12:24;100595.66;;;7.28;100.00
24390;BME280;12510;56.468;-3.004;2022-10-13T03:14:51;100591.72;;;7.22;100.00
24390;BME280;12510;56.468;-3.004;2022-10-13T03:17:17;100587.78;;;7.17;100.00
24390;BME280;12510;56.468;-3.004;2022-10-13T03:19:44;100576.69;;;7.13;100.00
24390;BME280;12510;56.468;-3.004;2022-10-13T03:22:14;100581.09;;;7.13;100.00
24390;BME280;12510;56.468;-3.004;2022-10-13T03:24:41;100576.81;;;7.12;100.00
24390;BME280;12510;56.468;-3.004;2022-10-13T03:27:07;100577.75;;;7.11;100.00
24390;BME280;12510;56.468;-3.004;2022-10-13T03:29:34;100582.75;;;7.14;100.00
24390;BME280;12510;56.468;-3.004;2022-10-13T03:32:00;100591.22;;;7.17;100.00
24390;BME280;12510;56.468;-3.004;2022-10-13T03:34:26;100597.78;;;7.23;100.00
24390;BME280;12510;56.468;-3.004;2022-10-13T03:36:54;100600.28;;;7.25;100.00
24390;BME280;12510;56.468;-3.004;2022-10-13T03:39:20;100597.56;;;7.26;100.00
24390;BME280;12510;56.468;-3.004;2022-10-13T03:41:47;100603.50;;;7.28;100.00
24390;BME280;12510;56.468;-3.004;2022-10-13T03:44:13;100603.88;;;7.24;100.00
24390;BME280;12510;56.468;-3.004;2022-10-13T03:46:40;100611.13;;;7.20;100.00
24390;BME280;12510;56.468;-3.004;2022-10-13T03:49:08;100606.13;;;7.17;100.00
24390;BME280;12510;56.468;-3.004;2022-10-13T03:51:35;100600.16;;;7.15;100.00
24390;BME280;12510;56.468;-3.004;2022-10-13T03:54:01;100592.53;;;7.12;100.00
24390;BME280;12510;56.468;-3.004;2022-10-13T03:56:28;100595.25;;;7.10;100.00
24390;BME280;12510;56.468;-3.004;2022-10-13T03:58:56;100607.00;;;7.04;100.00
24390;BME280;12510;56.468;-3.004;2022-10-13T04:01:24;100613.91;;;7.05;100.00
24390;BME280;12510;56.468;-3.004;2022-10-13T04:03:52;100626.19;;;7.05;100.00
24390;BME280;12510;56.468;-3.004;2022-10-13T04:06:21;100623.22;;;7.10;100.00
24390;BME280;12510;56.468;-3.004;2022-10-13T04:08:48;100621.94;;;7.15;100.00
24390;BME280;12510;56.468;-3.004;2022-10-13T04:11:15;100612.28;;;7.16;100.00
24390;BME280;12510;56.468;-3.004;2022-10-13T04:13:43;100615.84;;;7.15;100.00
24390;BME280;12510;56.468;-3.004;2022-10-13T04:16:36;100602.16;;;7.11;100.00
24390;BME280;12510;56.468;-3.004;2022-10-13T04:19:05;100605.47;;;7.02;100.00
24390;BME280;12510;56.468;-3.004;2022-10-13T04:21:33;100603.19;;;6.97;100.00
24390;BME280;12510;56.468;-3.004;2022-10-13T04:24:00;100599.00;;;6.95;100.00
24390;BME280;12510;56.468;-3.004;2022-10-13T04:26:28;100591.28;;;6.93;100.00
24390;BME280;12510;56.468;-3.004;2022-10-13T04:28:57;100596.78;;;7.01;100.00
24390;BME280;12510;56.468;-3.004;2022-10-13T04:31:24;100592.34;;;6.91;100.00
24390;BME280;12510;56.468;-3.004;2022-10-13T04:33:53;100588.78;;;6.92;100.00
24390;BME280;12510;56.468;-3.004;2022-10-13T04:36:19;100599.25;;;6.92;100.00
24390;BME280;12510;56.468;-3.004;2022-10-13T04:38:50;100596.38;;;6.83;100.00
24390;BME280;12510;56.468;-3.004;2022-10-13T04:41:17;100593.91;;;6.93;100.00
24390;BME280;12510;56.468;-3.004;2022-10-13T04:43:48;100589.59;;;6.92;100.00
24390;BME280;12510;56.468;-3.004;2022-10-13T04:46:21;100586.28;;;6.90;100.00
24390;BME280;12510;56.468;-3.004;2022-10-13T04:48:51;100582.94;;;6.88;100.00
24390;BME280;12510;56.468;-3.004;2022-10-13T04:51:22;100580.44;;;6.86;100.00
24390;BME280;12510;56.468;-3.004;2022-10-13T04:54:00;100578.03;;;6.83;100.00
24390;BME280;12510;56.468;-3.004;2022-10-13T04:56:27;100578.84;;;6.73;100.00
24390;BME280;12510;56.468;-3.004;2022-10-13T04:58:54;100583.72;;;6.77;100.00
24390;BME280;12510;56.468;-3.004;2022-10-13T05:01:22;100578.47;;;6.77;100.00
24390;BME280;12510;56.468;-3.004;2022-10-13T05:03:53;100584.66;;;6.76;100.00
24390;BME280;12510;56.468;-3.004;2022-10-13T05:06:21;100582.31;;;6.84;100.00
24390;BME280;12510;56.468;-3.004;2022-10-13T05:08:49;100581.47;;;6.84;100.00
24390;BME280;12510;56.468;-3.004;2022-10-13T05:11:16;100579.59;;;6.86;100.00
24390;BME280;12510;56.468;-3.004;2022-10-13T05:13:46;100582.94;;;6.88;100.00
24390;BME280;12510;56.468;-3.004;2022-10-13T05:16:14;100583.03;;;6.86;100.00
24390;BME280;12510;56.468;-3.004;2022-10-13T05:18:42;100584.59;;;6.89;100.00
24390;BME280;12510;56.468;-3.004;2022-10-13T05:23:37;100569.50;;;6.93;100.00
24390;BME280;12510;56.468;-3.004;2022-10-13T05:26:06;100578.16;;;6.82;100.00
24390;BME280;12510;56.468;-3.004;2022-10-13T05:28:32;100566.97;;;6.91;100.00
24390;BME280;12510;56.468;-3.004;2022-10-13T05:33:37;100560.09;;;6.90;100.00
24390;BME280;12510;56.468;-3.004;2022-10-13T05:36:28;100574.38;;;6.86;100.00
24390;BME280;12510;56.468;-3.004;2022-10-13T05:38:57;100577.06;;;6.84;100.00
24390;BME280;12510;56.468;-3.004;2022-10-13T05:41:25;100576.56;;;7.03;100.00
24390;BME280;12510;56.468;-3.004;2022-10-13T05:43:55;100577.50;;;7.02;100.00
24390;BME280;12510;56.468;-3.004;2022-10-13T05:46:22;100577.16;;;7.07;100.00
24390;BME280;12510;56.468;-3.004;2022-10-13T05:48:49;100569.88;;;6.99;100.00
24390;BME280;12510;56.468;-3.004;2022-10-13T05:51:19;100579.69;;;7.09;100.00
24390;BME280;12510;56.468;-3.004;2022-10-13T05:53:49;100576.94;;;7.10;100.00
24390;BME280;12510;56.468;-3.004;2022-10-13T05:56:23;100573.47;;;7.10;100.00
24390;BME280;12510;56.468;-3.004;2022-10-13T05:58:56;100572.16;;;7.04;100.00
24390;BME280;12510;56.468;-3.004;2022-10-13T06:01:26;100576.69;;;7.13;100.00
24390;BME280;12510;56.468;-3.004;2022-10-13T06:03:58;100561.81;;;7.14;100.00
24390;BME280;12510;56.468;-3.004;2022-10-13T06:06:26;100569.56;;;7.15;100.00
24390;BME280;12510;56.468;-3.004;2022-10-13T06:08:53;100568.72;;;7.15;100.00
24390;BME280;12510;56.468;-3.004;2022-10-13T06:11:19;100572.78;;;7.19;100.00
24390;BME280;12510;56.468;-3.004;2022-10-13T06:13:45;100581.69;;;7.16;100.00
24390;BME280;12510;56.468;-3.004;2022-10-13T06:16:12;100580.75;;;7.17;100.00
24390;BME280;12510;56.468;-3.004;2022-10-13T06:18:38;100579.69;;;7.09;100.00
24390;BME280;12510;56.468;-3.004;2022-10-13T06:21:04;100574.31;;;7.21;100.00
24390;BME280;12510;56.468;-3.004;2022-10-13T06:23:31;100573.16;;;7.26;100.00
24390;BME280;12510;56.468;-3.004;2022-10-13T06:25:57;100567.56;;;7.30;100.00
24390;BME280;12510;56.468;-3.004;2022-10-13T06:28:25;100565.16;;;7.27;100.00
24390;BME280;12510;56.468;-3.004;2022-10-13T06:30:52;100565.66;;;7.32;100.00
24390;BME280;12510;56.468;-3.004;2022-10-13T06:33:23;100557.22;;;7.40;100.00
24390;BME280;12510;56.468;-3.004;2022-10-13T06:35:52;100553.41;;;7.44;100.00
24390;BME280;12510;56.468;-3.004;2022-10-13T06:38:19;100552.09;;;7.50;100.00
24390;BME280;12510;56.468;-3.004;2022-10-13T06:40:47;100555.94;;;7.57;100.00
24390;BME280;12510;56.468;-3.004;2022-10-13T06:43:13;100552.34;;;7.69;100.00
24390;BME280;12510;56.468;-3.004;2022-10-13T06:45:41;100540.41;;;7.77;100.00
24390;BME280;12510;56.468;-3.004;2022-10-13T06:48:07;100544.00;;;7.87;100.00
24390;BME280;12510;56.468;-3.004;2022-10-13T06:50:33;100558.41;;;7.93;100.00
24390;BME280;12510;56.468;-3.004;2022-10-13T06:53:00;100555.19;;;8.00;100.00
24390;BME280;12510;56.468;-3.004;2022-10-13T06:55:26;100559.47;;;8.01;100.00
24390;BME280;12510;56.468;-3.004;2022-10-13T06:57:53;100567.19;;;8.14;100.00
24390;BME280;12510;56.468;-3.004;2022-10-13T07:00:19;100568.38;;;8.21;100.00
24390;BME280;12510;56.468;-3.004;2022-10-13T07:02:49;100560.88;;;8.17;100.00
24390;BME280;12510;56.468;-3.004;2022-10-13T07:05:16;100565.75;;;8.10;100.00
24390;BME280;12510;56.468;-3.004;2022-10-13T07:07:42;100565.03;;;8.19;100.00
24390;BME280;12510;56.468;-3.004;2022-10-13T07:10:09;100569.53;;;8.29;100.00
24390;BME280;12510;56.468;-3.004;2022-10-13T07:12:35;100556.91;;;8.34;100.00
24390;BME280;12510;56.468;-3.004;2022-10-13T07:15:02;100540.94;;;8.26;100.00
24390;BME280;12510;56.468;-3.004;2022-10-13T07:17:29;100535.78;;;8.47;100.00
24390;BME280;12510;56.468;-3.004;2022-10-13T07:19:55;100544.69;;;8.55;100.00
24390;BME280;12510;56.468;-3.004;2022-10-13T07:22:22;100532.84;;;8.61;100.00
24390;BME280;12510;56.468;-3.004;2022-10-13T07:24:48;100528.47;;;8.50;100.00
24390;BME280;12510;56.468;-3.004;2022-10-13T07:27:15;100520.16;;;8.45;100.00
24390;BME280;12510;56.468;-3.004;2022-10-13T07:29:41;100526.16;;;8.68;100.00
24390;BME280;12510;56.468;-3.004;2022-10-13T07:32:07;100524.44;;;8.79;100.00
24390;BME280;12510;56.468;-3.004;2022-10-13T07:34:34;100522.38;;;8.82;100.00
24390;BME280;12510;56.468;-3.004;2022-10-13T07:37:00;100524.53;;;8.98;100.00
24390;BME280;12510;56.468;-3.004;2022-10-13T07:39:28;100530.88;;;8.96;100.00
24390;BME280;12510;56.468;-3.004;2022-10-13T07:41:55;100535.63;;;9.23;100.00
24390;BME280;12510;56.468;-3.004;2022-10-13T07:44:21;100534.31;;;9.38;100.00
24390;BME280;12510;56.468;-3.004;2022-10-13T07:46:48;100530.00;;;9.37;100.00
24390;BME280;12510;56.468;-3.004;2022-10-13T07:49:14;100538.81;;;9.57;100.00
24390;BME280;12510;56.468;-3.004;2022-10-13T07:51:41;100544.16;;;9.77;100.00
24390;BME280;12510;56.468;-3.004;2022-10-13T07:54:08;100550.03;;;10.00;100.00
24390;BME280;12510;56.468;-3.004;2022-10-13T07:56:35;100545.56;;;10.81;100.00
24390;BME280;12510;56.468;-3.004;2022-10-13T07:59:02;100549.66;;;11.32;100.00
24390;BME280;12510;56.468;-3.004;2022-10-13T08:01:30;100547.59;;;11.91;100.00
24390;BME280;12510;56.468;-3.004;2022-10-13T08:03:57;100546.66;;;12.56;100.00
24390;BME280;12510;56.468;-3.004;2022-10-13T08:06:24;100536.78;;;13.03;100.00
24390;BME280;12510;56.468;-3.004;2022-10-13T08:08:53;100537.19;;;14.20;100.00
24390;BME280;12510;56.468;-3.004;2022-10-13T08:11:20;100543.00;;;14.40;100.00
24390;BME280;12510;56.468;-3.004;2022-10-13T08:13:48;100543.81;;;15.31;100.00
24390;BME280;12510;56.468;-3.004;2022-10-13T08:16:20;100542.50;;;15.75;100.00
24390;BME280;12510;56.468;-3.004;2022-10-13T08:18:47;100542.69;;;16.59;100.00
24390;BME280;12510;56.468;-3.004;2022-10-13T08:21:16;100542.06;;;16.57;100.00
24390;BME280;12510;56.468;-3.004;2022-10-13T08:23:43;100522.69;;;17.55;100.00
24390;BME280;12510;56.468;-3.004;2022-10-13T08:26:24;100521.84;;;17.54;100.00
24390;BME280;12510;56.468;-3.004;2022-10-13T08:28:52;100536.63;;;17.27;100.00
24390;BME280;12510;56.468;-3.004;2022-10-13T08:31:19;100532.78;;;17.59;100.00
24390;BME280;12510;56.468;-3.004;2022-10-13T08:33:46;100531.97;;;17.59;100.00
24390;BME280;12510;56.468;-3.004;2022-10-13T08:36:15;100546.75;;;18.13;100.00
24390;BME280;12510;56.468;-3.004;2022-10-13T08:38:43;100548.47;;;19.07;100.00
24390;BME280;12510;56.468;-3.004;2022-10-13T08:41:17;100545.72;;;18.94;89.87
24390;BME280;12510;56.468;-3.004;2022-10-13T08:43:55;100542.53;;;18.40;92.91
24390;BME280;12510;56.468;-3.004;2022-10-13T08:46:28;100551.63;;;18.24;99.50
24390;BME280;12510;56.468;-3.004;2022-10-13T08:48:59;100549.28;;;17.25;100.00
24390;BME280;12510;56.468;-3.004;2022-10-13T08:51:28;100546.19;;;16.60;100.00
24390;BME280;12510;56.468;-3.004;2022-10-13T08:53:55;100550.03;;;16.34;100.00
24390;BME280;12510;56.468;-3.004;2022-10-13T08:56:29;100557.50;;;16.07;100.00
24390;BME280;12510;56.468;-3.004;2022-10-13T08:58:56;100554.53;;;16.02;100.00
24390;BME280;12510;56.468;-3.004;2022-10-13T09:01:27;100557.59;;;15.74;100.00
24390;BME280;12510;56.468;-3.004;2022-10-13T09:03:57;100556.09;;;15.24;100.00
24390;BME280;12510;56.468;-3.004;2022-10-13T09:06:36;100560.09;;;14.70;100.00
24390;BME280;12510;56.468;-3.004;2022-10-13T09:09:07;100557.44;;;14.79;100.00
24390;BME280;12510;56.468;-3.004;2022-10-13T09:11:37;100541.53;;;14.79;100.00
24390;BME280;12510;56.468;-3.004;2022-10-13T09:14:06;100544.03;;;14.64;100.00
24390;BME280;12510;56.468;-3.004;2022-10-13T09:16:36;100541.03;;;15.81;100.00
24390;BME280;12510;56.468;-3.004;2022-10-13T09:21:53;100546.63;;;16.87;100.00
24390;BME280;12510;56.468;-3.004;2022-10-13T09:24:22;100552.91;;;16.24;100.00
24390;BME280;12510;56.468;-3.004;2022-10-13T09:27:00;100537.94;;;16.93;100.00
24390;BME280;12510;56.468;-3.004;2022-10-13T09:29:28;100537.06;;;17.01;100.00
24390;BME280;12510;56.468;-3.004;2022-10-13T09:32:17;100529.75;;;17.18;100.00
24390;BME280;12510;56.468;-3.004;2022-10-13T09:34:45;100522.59;;;17.63;100.00
24390;BME280;12510;56.468;-3.004;2022-10-13T09:37:23;100526.97;;;17.86;98.70
24390;BME280;12510;56.468;-3.004;2022-10-13T09:40:20;100515.09;;;18.47;97.85
24390;BME280;12510;56.468;-3.004;2022-10-13T09:42:51;100515.66;;;17.99;96.07
24390;BME280;12510;56.468;-3.004;2022-10-13T09:45:20;100506.47;;;18.23;97.86
24390;BME280;12510;56.468;-3.004;2022-10-13T09:48:03;100500.59;;;18.77;93.67
24390;BME280;12510;56.468;-3.004;2022-10-13T09:50:33;100516.00;;;18.54;96.78
24390;BME280;12510;56.468;-3.004;2022-10-13T09:53:32;100499.56;;;18.29;100.00
24390;BME280;12510;56.468;-3.004;2022-10-13T09:56:22;100496.06;;;17.25;100.00
24390;BME280;12510;56.468;-3.004;2022-10-13T09:59:26;100502.03;;;17.12;100.00
24390;BME280;12510;56.468;-3.004;2022-10-13T10:01:55;100510.00;;;15.73;100.00
24390;BME280;12510;56.468;-3.004;2022-10-13T10:04:28;100499.41;;;16.04;100.00
24390;BME280;12510;56.468;-3.004;2022-10-13T10:06:55;100507.16;;;16.37;100.00
24390;BME280;12510;56.468;-3.004;2022-10-13T10:09:34;100505.50;;;17.42;100.00
24390;BME280;12510;56.468;-3.004;2022-10-13T10:12:03;100505.81;;;17.33;100.00
24390;BME280;12510;56.468;-3.004;2022-10-13T10:14:35;100501.75;;;17.22;100.00
24390;BME280;12510;56.468;-3.004;2022-10-13T10:22:58;100489.84;;;17.99;100.00
24390;BME280;12510;56.468;-3.004;2022-10-13T10:25:33;100488.19;;;17.17;100.00
24390;BME280;12510;56.468;-3.004;2022-10-13T10:30:30;100489.91;;;17.54;100.00
24390;BME280;12510;56.468;-3.004;2022-10-13T10:33:07;100484.53;;;17.69;100.00
24390;BME280;12510;56.468;-3.004;2022-10-13T10:44:07;100462.75;;;17.14;100.00
24390;BME280;12510;56.468;-3.004;2022-10-13T10:46:40;100451.72;;;16.34;100.00
24390;BME280;12510;56.468;-3.004;2022-10-13T10:49:30;100460.13;;;16.61;100.00
24390;BME280;12510;56.468;-3.004;2022-10-13T10:51:59;100441.22;;;17.24;100.00
24390;BME280;12510;56.468;-3.004;2022-10-13T10:57:27;100424.72;;;17.50;100.00
24390;BME280;12510;56.468;-3.004;2022-10-13T11:00:15;100411.81;;;17.69;100.00
24390;BME280;12510;56.468;-3.004;2022-10-13T11:05:22;100406.22;;;18.22;100.00
24390;BME280;12510;56.468;-3.004;2022-10-13T11:10:20;100402.63;;;17.50;100.00
24390;BME280;12510;56.468;-3.004;2022-10-13T11:13:11;100406.41;;;17.40;100.00
24390;BME280;12510;56.468;-3.004;2022-10-13T11:15:44;100401.91;;;17.63;100.00
24390;BME280;12510;56.468;-3.004;2022-10-13T11:21:17;100374.09;;;17.65;100.00
24390;BME280;12510;56.468;-3.004;2022-10-13T11:23:46;100368.41;;;17.68;100.00
24390;BME280;12510;56.468;-3.004;2022-10-13T11:26:29;100372.28;;;17.14;100.00
24390;BME280;12510;56.468;-3.004;2022-10-13T11:28:57;100361.09;;;16.59;100.00
24390;BME280;12510;56.468;-3.004;2022-10-13T11:31:47;100360.56;;;17.08;100.00
24390;BME280;12510;56.468;-3.004;2022-10-13T11:34:29;100352.88;;;16.84;100.00
24390;BME280;12510;56.468;-3.004;2022-10-13T11:36:58;100360.00;;;16.53;100.00
24390;BME280;12510;56.468;-3.004;2022-10-13T11:42:29;100344.34;;;16.73;100.00
24390;BME280;12510;56.468;-3.004;2022-10-13T11:55:44;100318.91;;;17.16;100.00
24390;BME280;12510;56.468;-3.004;2022-10-13T11:58:29;100312.47;;;17.47;100.00
24390;BME280;12510;56.468;-3.004;2022-10-13T12:01:02;100303.84;;;17.66;100.00
24390;BME280;12510;56.468;-3.004;2022-10-13T12:03:32;100294.53;;;17.99;100.00
24390;BME280;12510;56.468;-3.004;2022-10-13T12:06:02;100290.69;;;18.08;100.00
24390;BME280;12510;56.468;-3.004;2022-10-13T12:08:32;100293.09;;;18.24;100.00
24390;BME280;12510;56.468;-3.004;2022-10-13T12:11:00;100288.44;;;18.40;100.00
24390;BME280;12510;56.468;-3.004;2022-10-13T12:13:32;100291.28;;;18.32;100.00
24390;BME280;12510;56.468;-3.004;2022-10-13T12:16:01;100293.00;;;17.68;100.00
24390;BME280;12510;56.468;-3.004;2022-10-13T12:18:30;100287.47;;;17.91;100.00
24390;BME280;12510;56.468;-3.004;2022-10-13T12:21:07;100285.41;;;17.43;100.00
24390;BME280;12510;56.468;-3.004;2022-10-13T12:23:35;100285.31;;;16.48;100.00
24390;BME280;12510;56.468;-3.004;2022-10-13T12:26:02;100290.34;;;17.46;100.00
24390;BME280;12510;56.468;-3.004;2022-10-13T12:28:56;100289.28;;;17.62;100.00
24390;BME280;12510;56.468;-3.004;2022-10-13T12:31:27;100289.63;;;17.16;100.00
24390;BME280;12510;56.468;-3.004;2022-10-13T12:33:57;100292.00;;;17.47;100.00
24390;BME280;12510;56.468;-3.004;2022-10-13T12:36:32;100294.53;;;17.55;100.00
24390;BME280;12510;56.468;-3.004;2022-10-13T12:39:04;100286.44;;;17.42;100.00
24390;BME280;12510;56.468;-3.004;2022-10-13T12:41:34;100296.00;;;17.58;100.00
24390;BME280;12510;56.468;-3.004;2022-10-13T12:44:01;100304.13;;;17.50;100.00
24390;BME280;12510;56.468;-3.004;2022-10-13T12:46:57;100316.09;;;17.39;100.00
24390;BME280;12510;56.468;-3.004;2022-10-13T12:49:33;100301.88;;;17.53;100.00
24390;BME280;12510;56.468;-3.004;2022-10-13T12:54:37;100305.00;;;16.99;100.00
24390;BME280;12510;56.468;-3.004;2022-10-13T12:57:16;100298.69;;;16.55;100.00
24390;BME280;12510;56.468;-3.004;2022-10-13T12:59:44;100288.78;;;16.94;100.00
24390;BME280;12510;56.468;-3.004;2022-10-13T13:02:28;100289.13;;;17.05;100.00
24390;BME280;12510;56.468;-3.004;2022-10-13T13:04:56;100295.00;;;17.01;100.00
24390;BME280;12510;56.468;-3.004;2022-10-13T13:07:31;100289.81;;;16.63;100.00
24390;BME280;12510;56.468;-3.004;2022-10-13T13:10:17;100284.50;;;16.48;100.00
24390;BME280;12510;56.468;-3.004;2022-10-13T13:12:45;100280.16;;;16.62;100.00
24390;BME280;12510;56.468;-3.004;2022-10-13T13:15:35;100270.69;;;16.74;100.00
24390;BME280;12510;56.468;-3.004;2022-10-13T13:20:47;100285.19;;;16.71;100.00
24390;BME280;12510;56.468;-3.004;2022-10-13T13:23:14;100278.91;;;17.09;100.00
24390;BME280;12510;56.468;-3.004;2022-10-13T13:25:45;100274.00;;;16.91;100.00
24390;BME280;12510;56.468;-3.004;2022-10-13T13:28:13;100269.84;;;16.88;100.00
24390;BME280;12510;56.468;-3.004;2022-10-13T13:30:41;100270.84;;;17.02;100.00
24390;BME280;12510;56.468;-3.004;2022-10-13T13:33:08;100261.41;;;17.00;100.00
24390;BME280;12510;56.468;-3.004;2022-10-13T13:35:35;100260.06;;;17.25;100.00
24390;BME280;12510;56.468;-3.004;2022-10-13T13:38:03;100253.97;;;17.32;100.00
24390;BME280;12510;56.468;-3.004;2022-10-13T13:40:29;100250.03;;;17.06;100.00
24390;BME280;12510;56.468;-3.004;2022-10-13T13:42:56;100249.91;;;16.63;100.00
24390;BME280;12510;56.468;-3.004;2022-10-13T13:45:27;100243.44;;;17.02;100.00
24390;BME280;12510;56.468;-3.004;2022-10-13T13:47:53;100243.78;;;17.14;100.00
24390;BME280;12510;56.468;-3.004;2022-10-13T13:50:25;100235.41;;;16.95;99.34
24390;BME280;12510;56.468;-3.004;2022-10-13T13:52:58;100223.31;;;17.14;99.77
24390;BME280;12510;56.468;-3.004;2022-10-13T13:55:26;100225.66;;;17.46;96.64
24390;BME280;12510;56.468;-3.004;2022-10-13T13:57:53;100229.09;;;17.18;95.71
24390;BME280;12510;56.468;-3.004;2022-10-13T14:00:19;100220.59;;;17.51;96.22
24390;BME280;12510;56.468;-3.004;2022-10-13T14:02:52;100213.84;;;17.55;94.66
24390;BME280;12510;56.468;-3.004;2022-10-13T14:05:19;100213.13;;;17.18;96.33
24390;BME280;12510;56.468;-3.004;2022-10-13T14:07:45;100207.75;;;17.61;96.09
24390;BME280;12510;56.468;-3.004;2022-10-13T14:10:12;100206.72;;;17.90;94.02
24390;BME280;12510;56.468;-3.004;2022-10-13T14:12:39;100191.06;;;18.02;91.89